Time;durP1;ratioP1;P1;durP2;ratioP2;P2;SDS_P1;SDS_P2;PMS_P1;PMS_P2;Temp;Humidity;BMP_temperature;BMP_pressure;BME280_temperature;BME280_humidity;BME280_pressure;Samples;Min_cycle;Max_cycle;Signal;HPM_P1;HPM_P2
2021/01/06 00:01:02;;;;;;;42.15;26.33;;;;;;;0.97;89.16;96157.39;1751623;82;21654;-88
2021/01/06 00:03:30;;;;;;;46.83;28.57;;;;;;;0.97;89.19;96154.78;1751711;81;21650;-88
2021/01/06 00:06:05;;;;;;;48.42;28.23;;;;;;;0.97;89.15;96157.91;1751544;82;21147;-89
2021/01/06 00:08:32;;;;;;;50.25;28.80;;;;;;;0.94;89.17;96150.02;1751922;81;21303;-88
2021/01/06 00:11:01;;;;;;;49.48;26.85;;;;;;;0.95;89.19;96152.13;1751547;81;21147;-88
2021/01/06 00:13:29;;;;;;;52.78;27.73;;;;;;;0.91;89.11;96158.83;1753335;82;21286;-88
2021/01/06 00:15:58;;;;;;;46.05;26.75;;;;;;;0.79;89.07;96154.91;1757244;81;21507;-88
2021/01/06 00:18:27;;;;;;;53.30;27.45;;;;;;;0.77;89.17;96151.73;1757355;81;21136;-88
2021/01/06 00:20:56;;;;;;;46.18;27.48;;;;;;;0.80;89.23;96153.89;1757039;81;21184;-88
2021/01/06 00:23:24;;;;;;;46.63;27.40;;;;;;;0.79;89.16;96158.31;1757313;81;21831;-88
2021/01/06 00:25:52;;;;;;;56.00;29.55;;;;;;;0.82;89.27;96158.36;1757151;81;21507;-88
2021/01/06 00:28:21;;;;;;;45.40;25.95;;;;;;;0.83;89.28;96159.44;1757233;81;21166;-89
2021/01/06 00:30:52;;;;;;;46.63;25.43;;;;;;;0.85;89.29;96165.77;1757251;82;21132;-88
2021/01/06 00:33:27;;;;;;;48.63;26.97;;;;;;;0.77;89.23;96163.48;1757201;82;21479;-88
2021/01/06 00:35:58;;;;;;;50.52;28.10;;;;;;;0.71;89.24;96161.79;1757140;81;21511;-88
2021/01/06 00:38:30;;;;;;;52.25;27.98;;;;;;;0.67;89.29;96159.33;1757146;81;21165;-88
2021/01/06 00:40:58;;;;;;;59.15;30.20;;;;;;;0.71;89.45;96161.79;1757138;82;21148;-88
2021/01/06 00:43:25;;;;;;;48.02;26.52;;;;;;;0.76;89.54;96161.38;1757188;81;21163;-89
2021/01/06 00:45:53;;;;;;;45.75;27.27;;;;;;;0.77;89.49;96163.48;1757095;82;21135;-88
2021/01/06 00:48:21;;;;;;;49.35;27.55;;;;;;;0.67;89.29;96158.81;1757093;81;21136;-88
2021/01/06 00:50:48;;;;;;;50.00;26.85;;;;;;;0.57;89.26;96165.92;1757122;82;21536;-88
2021/01/06 00:53:26;;;;;;;48.15;26.75;;;;;;;0.49;89.27;96166.24;1757174;82;21148;-88
2021/01/06 00:55:55;;;;;;;47.60;26.40;;;;;;;0.46;89.38;96161.99;1757231;81;21801;-89
2021/01/06 00:58:23;;;;;;;49.15;26.70;;;;;;;0.46;89.52;96169.81;1757223;81;21140;-88
2021/01/06 01:00:50;;;;;;;49.70;27.82;;;;;;;0.47;89.61;96164.38;1757393;81;21144;-88
2021/01/06 01:03:17;;;;;;;49.70;28.25;;;;;;;0.42;89.64;96166.84;1757147;81;21112;-88
2021/01/06 01:05:46;;;;;;;52.38;28.05;;;;;;;0.38;89.72;96170.92;1757392;81;21321;-88
2021/01/06 01:08:14;;;;;;;57.23;28.30;;;;;;;0.39;89.88;96173.02;1757215;81;21264;-88
2021/01/06 01:10:46;;;;;;;49.18;28.23;;;;;;;0.42;90.00;96172.05;1757156;82;21532;-88
2021/01/06 01:13:19;;;;;;;53.90;27.13;;;;;;;0.45;90.01;96170.84;1757393;81;21139;-88
2021/01/06 01:15:49;;;;;;;54.77;28.67;;;;;;;0.42;90.04;96174.66;1757219;81;21477;-89
2021/01/06 01:18:21;;;;;;;52.85;27.70;;;;;;;0.35;90.04;96173.98;1757335;81;21139;-88
2021/01/06 01:20:54;;;;;;;49.05;27.32;;;;;;;0.33;90.13;96179.14;1756990;81;21525;-88
2021/01/06 01:23:25;;;;;;;55.12;29.37;;;;;;;0.37;90.22;96181.07;1757200;81;21160;-88
2021/01/06 01:25:54;;;;;;;46.65;27.85;;;;;;;0.41;90.27;96187.41;1757232;81;21127;-89
2021/01/06 01:28:23;;;;;;;46.58;27.37;;;;;;;0.46;90.28;96188.86;1757109;81;21148;-88
2021/01/06 01:30:52;;;;;;;45.78;27.58;;;;;;;0.50;90.28;96192.60;1757229;82;21160;-88
2021/01/06 01:33:22;;;;;;;50.92;27.40;;;;;;;0.52;90.25;96191.86;1757130;82;21519;-88
2021/01/06 01:35:49;;;;;;;49.27;28.60;;;;;;;0.57;90.24;96192.52;1757325;82;21148;-88
2021/01/06 01:38:22;;;;;;;57.43;27.93;;;;;;;0.54;90.14;96189.03;1757273;81;21151;-88
2021/01/06 01:41:03;;;;;;;52.62;28.23;;;;;;;0.46;90.15;96183.64;1756459;82;21159;-88
2021/01/06 01:43:31;;;;;;;48.13;29.18;;;;;;;0.33;90.19;96189.06;1757183;82;21101;-88
2021/01/06 01:46:06;;;;;;;54.15;27.52;;;;;;;0.26;90.31;96200.88;1757411;81;21143;-88
2021/01/06 01:48:41;;;;;;;49.95;27.35;;;;;;;0.24;90.43;96196.91;1757144;81;21148;-88
2021/01/06 01:51:38;;;;;;;56.25;29.00;;;;;;;0.19;90.54;96192.88;1756847;82;21121;-88
2021/01/06 01:54:09;;;;;;;54.40;28.83;;;;;;;0.18;90.67;96191.30;1757470;82;21156;-88
2021/01/06 01:57:03;;;;;;;49.53;25.10;;;;;;;0.21;90.73;96189.54;1757335;81;21266;-88
2021/01/06 01:59:55;;;;;;;54.27;29.20;;;;;;;0.20;90.84;96191.35;1757405;81;21630;-88
2021/01/06 02:02:51;;;;;;;55.38;29.00;;;;;;;0.13;90.85;96196.36;1757054;81;21167;-88
2021/01/06 02:05:29;;;;;;;50.60;27.82;;;;;;;0.07;91.05;96186.84;1757343;82;21143;-89
2021/01/06 02:10:57;;;;;;;68.75;37.58;;;;;;;0.02;91.58;96184.91;1861994;76;28070;-87
2021/01/06 02:13:32;;;;;;;52.43;31.00;;;;;;;-0.06;91.43;96180.78;1819457;79;21080;-87
2021/01/06 02:16:19;;;;;;;48.23;27.65;;;;;;;-0.03;91.49;96180.84;1792310;79;21123;-88
2021/01/06 02:18:47;;;;;;;48.80;27.17;;;;;;;0.02;91.54;96189.32;1831526;77;21135;-88
2021/01/06 02:21:21;;;;;;;49.45;26.82;;;;;;;-0.07;91.83;96190.92;1852383;77;21265;-88
2021/01/06 02:23:55;;;;;;;41.33;23.83;;;;;;;-0.14;92.07;96192.02;1853045;77;21254;-88
2021/01/06 02:26:26;;;;;;;55.03;29.85;;;;;;;-0.19;92.11;96193.98;1852771;77;21460;-88
2021/01/06 02:28:56;;;;;;;49.70;27.93;;;;;;;-0.20;92.12;96192.91;1801164;79;21159;-88
2021/01/06 02:31:24;;;;;;;40.35;23.27;;;;;;;-0.12;92.26;96188.20;1793292;80;21519;-88
2021/01/06 02:33:53;;;;;;;51.25;27.32;;;;;;;-0.09;92.31;96191.66;1793061;80;21134;-88
2021/01/06 02:36:22;;;;;;;45.08;27.90;;;;;;;-0.12;92.12;96202.53;1793069;79;21104;-88
2021/01/06 02:38:49;;;;;;;57.05;30.15;;;;;;;-0.08;92.30;96202.88;1793013;80;21564;-88
2021/01/06 02:41:17;;;;;;;50.17;27.00;;;;;;;-0.01;92.40;96201.75;1793356;80;21140;-88
2021/01/06 02:43:45;;;;;;;53.70;28.20;;;;;;;0.05;92.27;96205.81;1793065;79;21144;-87
2021/01/06 02:46:12;;;;;;;51.45;28.10;;;;;;;0.10;92.31;96204.12;1792998;80;21131;-88
2021/01/06 02:48:40;;;;;;;46.50;27.07;;;;;;;0.16;92.30;96203.25;1792976;80;21167;-88
2021/01/06 02:51:17;;;;;;;50.83;28.42;;;;;;;0.24;92.27;96207.33;1764489;80;21519;-88
2021/01/06 02:53:55;;;;;;;49.50;26.23;;;;;;;0.28;92.23;96206.69;1793132;79;21444;-88
2021/01/06 02:56:22;;;;;;;51.37;27.65;;;;;;;0.34;92.12;96201.08;1792793;80;21163;-88
2021/01/06 02:58:52;;;;;;;50.70;26.42;;;;;;;0.36;92.06;96199.04;1792967;79;21176;-88
2021/01/06 03:01:22;;;;;;;;;;;;;;;0.40;91.90;96197.56;1795834;80;21133;-88
2021/01/06 03:03:52;;;;;;;45.40;25.35;;;;;;;0.44;91.90;96186.20;1793132;79;20151;-88
2021/01/06 03:06:26;;;;;;;46.88;25.85;;;;;;;0.46;91.83;96195.38;1793237;79;21516;-88
2021/01/06 03:08:53;;;;;;;50.08;26.90;;;;;;;0.47;91.78;96190.95;1792525;80;21534;-88
2021/01/06 03:11:20;;;;;;;52.83;28.52;;;;;;;0.48;91.73;96191.24;1793069;79;21102;-88
2021/01/06 03:13:48;;;;;;;48.85;25.60;;;;;;;0.45;91.62;96191.19;1792970;80;21136;-88
2021/01/06 03:16:15;;;;;;;54.05;27.20;;;;;;;0.41;91.56;96183.50;1793009;80;21501;-88
2021/01/06 03:18:42;;;;;;;50.70;26.97;;;;;;;0.35;91.52;96184.92;1792974;80;21164;-87
2021/01/06 03:21:10;;;;;;;47.67;27.87;;;;;;;0.36;91.59;96186.52;1792767;80;21135;-87
2021/01/06 03:23:43;;;;;;;49.05;28.27;;;;;;;0.38;91.57;96184.47;1792420;80;21120;-88
2021/01/06 03:26:17;;;;;;;48.87;26.12;;;;;;;0.40;91.55;96187.64;1791328;80;21155;-88
2021/01/06 03:28:47;;;;;;;52.20;27.35;;;;;;;0.39;91.54;96189.45;1792409;79;21289;-87
2021/01/06 03:31:23;;;;;;;52.83;28.25;;;;;;;0.38;91.64;96172.73;1792861;80;21513;-87
2021/01/06 03:34:07;;;;;;;51.33;26.05;;;;;;;0.38;91.64;96172.73;1792548;79;21142;-88
2021/01/06 03:36:39;;;;;;;47.83;25.70;;;;;;;0.52;91.59;96183.25;1792693;79;21179;-88
2021/01/06 03:39:12;;;;;;;48.20;25.45;;;;;;;0.53;91.51;96180.41;1763731;80;21179;-88
2021/01/06 03:41:39;;;;;;;49.20;25.92;;;;;;;0.54;91.49;96180.69;1791507;80;21150;-88
2021/01/06 03:44:10;;;;;;;46.90;26.30;;;;;;;0.58;91.46;96176.64;1792473;80;21550;-88
2021/01/06 03:46:47;;;;;;;46.00;26.50;;;;;;;0.60;91.42;96169.89;1792654;80;21151;-88
2021/01/06 03:49:41;;;;;;;46.05;25.50;;;;;;;0.65;91.44;96173.11;1792144;79;21190;-88
2021/01/06 03:52:45;;;;;;;45.05;24.15;;;;;;;0.71;91.41;96173.53;1792492;79;21131;-88
2021/01/06 03:55:23;;;;;;;46.53;24.87;;;;;;;0.70;91.25;96171.91;1792761;79;21139;-88
2021/01/06 03:57:56;;;;;;;46.42;25.40;;;;;;;0.71;91.23;96167.01;1790882;80;21187;-88
2021/01/06 04:00:52;;;;;;;43.83;25.80;;;;;;;0.72;91.21;96171.20;1792488;79;21126;-88
2021/01/06 04:03:53;;;;;;;42.43;22.93;;;;;;;0.69;91.12;96164.59;1792525;79;21250;-88
2021/01/06 04:06:24;;;;;;;46.83;22.82;;;;;;;0.69;91.05;96161.99;1792501;80;21135;-88
2021/01/06 04:08:54;;;;;;;;;;;;;;;0.46;90.90;96172.42;1795119;80;21124;-88
2021/01/06 04:11:29;;;;;;;36.73;22.32;;;;;;;0.27;91.02;96171.69;1792543;79;20123;-88
2021/01/06 04:13:57;;;;;;;42.75;24.43;;;;;;;0.14;91.12;96169.28;1763892;80;21134;-88
2021/01/06 04:16:27;;;;;;;42.45;23.77;;;;;;;0.09;91.34;96170.46;1792456;79;21104;-88
2021/01/06 04:18:54;;;;;;;41.77;21.73;;;;;;;0.10;91.48;96162.93;1792515;80;21135;-88
2021/01/06 04:21:21;;;;;;;33.80;21.73;;;;;;;0.15;91.68;96165.68;1792741;80;21138;-88
2021/01/06 04:23:49;;;;;;;41.53;24.15;;;;;;;0.06;91.93;96165.70;1792405;80;21108;-88
2021/01/06 04:26:18;;;;;;;34.20;20.40;;;;;;;-0.13;91.73;96164.97;1792439;79;21100;-88
2021/01/06 04:28:45;;;;;;;36.30;21.48;;;;;;;-0.20;91.84;96170.77;1792365;79;21144;-88
2021/01/06 04:31:18;;;;;;;37.60;19.67;;;;;;;-0.24;91.95;96163.11;1792537;79;21150;-89
2021/01/06 04:33:50;;;;;;;38.75;20.85;;;;;;;-0.23;91.98;96167.30;1792353;80;21278;-88
2021/01/06 04:36:28;;;;;;;35.78;20.80;;;;;;;-0.20;91.98;96168.95;1792441;79;21131;-88
2021/01/06 04:39:00;;;;;;;38.80;19.82;;;;;;;-0.11;92.16;96174.16;1792486;80;21147;-88
2021/01/06 04:41:47;;;;;;;30.97;18.52;;;;;;;-0.11;92.04;96175.97;1792422;80;21104;-88
2021/01/06 04:44:32;;;;;;;31.12;18.42;;;;;;;-0.18;91.92;96169.52;1792490;80;21449;-88
2021/01/06 04:47:25;;;;;;;39.08;21.87;;;;;;;-0.21;91.91;96181.70;1792417;80;21135;-88
2021/01/06 04:50:49;;;;;;;36.88;20.48;;;;;;;-0.28;91.93;96182.30;1791968;80;21661;-87
2021/01/06 04:53:43;;;;;;;37.55;20.95;;;;;;;-0.23;92.08;96182.42;1792472;80;21124;-88
2021/01/06 04:56:56;;;;;;;35.70;19.73;;;;;;;-0.14;92.16;96179.81;1792611;79;21511;-88
2021/01/06 04:59:48;;;;;;;38.78;21.50;;;;;;;-0.10;92.14;96174.44;1792552;80;21139;-88
2021/01/06 05:02:55;;;;;;;26.20;14.25;;;;;;;-0.10;91.99;96173.64;1792719;79;21171;-88
2021/01/06 05:08:48;;;;;;;30.62;17.30;;;;;;;-0.24;91.80;96157.39;1877981;76;23459;-87
2021/01/06 05:11:34;;;;;;;36.70;19.37;;;;;;;-0.37;91.75;96160.17;1819365;79;21119;-88
2021/01/06 05:14:13;;;;;;;34.40;19.60;;;;;;;-0.43;91.78;96152.71;1819466;79;21654;-88
2021/01/06 05:16:47;;;;;;;35.68;18.40;;;;;;;-0.40;91.96;96161.41;1819370;79;21159;-88
2021/01/06 05:19:30;;;;;;;37.83;20.68;;;;;;;-0.36;91.99;96163.06;1812389;79;21216;-88
2021/01/06 05:22:00;;;;;;;33.05;17.25;;;;;;;-0.37;91.98;96163.56;1770312;81;21151;-88
2021/01/06 05:24:41;;;;;;;39.05;20.57;;;;;;;-0.45;91.86;96162.55;1770339;81;21154;-88
2021/01/06 05:27:17;;;;;;;;;;;;;;;-0.51;91.91;96156.14;1772964;81;21162;-88
2021/01/06 05:29:55;;;;;;;29.72;17.25;;;;;;;-0.48;92.04;96160.91;1770229;81;20123;-88
2021/01/06 05:32:33;;;;;;;28.73;16.52;;;;;;;-0.42;92.14;96165.25;1770310;81;21146;-88
2021/01/06 05:35:20;;;;;;;28.90;15.80;;;;;;;-0.38;92.13;96165.09;1770218;81;21116;-89
2021/01/06 05:38:00;;;;;;;27.48;15.68;;;;;;;-0.46;91.94;96165.38;1770256;80;21126;-87
2021/01/06 05:40:32;;;;;;;31.73;16.32;;;;;;;-0.58;91.88;96165.31;1770398;80;21107;-88
2021/01/06 05:43:04;;;;;;;35.17;17.20;;;;;;;-0.68;91.90;96161.95;1770357;81;21134;-87
2021/01/06 05:45:52;;;;;;;26.85;13.22;;;;;;;-0.70;91.98;96155.38;1769857;81;21151;-88
2021/01/06 05:48:46;;;;;;;24.57;16.17;;;;;;;-0.76;92.09;96152.33;1769902;81;21117;-88
2021/01/06 05:51:35;;;;;;;29.98;16.15;;;;;;;-0.76;92.09;96152.33;1770895;79;21123;-88
2021/01/06 05:54:40;;;;;;;27.58;16.17;;;;;;;-0.74;92.10;96154.99;1770420;81;21328;-88
2021/01/06 05:57:21;;;;;;;27.30;14.73;;;;;;;-0.70;92.17;96156.67;1770223;80;21480;-87
2021/01/06 05:59:59;;;;;;;27.62;17.30;;;;;;;-0.70;92.17;96156.67;1755319;81;21139;-87
2021/01/06 06:03:04;;;;;;;30.88;16.15;;;;;;;-0.73;92.07;96151.37;1769689;81;21167;-88
2021/01/06 06:05:51;;;;;;;22.07;12.50;;;;;;;-0.71;92.19;96156.36;1770224;81;21119;-88
2021/01/06 06:08:46;;;;;;;31.95;15.63;;;;;;;-0.82;92.14;96147.50;1758400;80;21491;-88
2021/01/06 06:11:38;;;;;;;27.62;14.25;;;;;;;-0.87;92.00;96154.34;1770492;80;21249;-87
2021/01/06 06:14:30;;;;;;;22.90;14.40;;;;;;;-0.78;92.16;96174.67;1773316;80;21147;-88
2021/01/06 06:17:30;;;;;;;24.43;13.88;;;;;;;-1.02;91.73;96166.41;1770568;80;21111;-88
2021/01/06 06:20:15;;;;;;;27.77;15.63;;;;;;;-1.10;91.97;96167.50;1770712;79;21115;-88
2021/01/06 06:23:15;;;;;;;23.80;13.72;;;;;;;-1.15;92.12;96166.54;1769932;80;21163;-87
2021/01/06 06:26:06;;;;;;;30.90;15.10;;;;;;;-1.14;92.20;96159.02;1770015;81;21167;-87
2021/01/06 06:28:44;;;;;;;26.25;14.95;;;;;;;-1.27;92.24;96143.05;1745506;80;21169;-88
2021/01/06 06:31:33;;;;;;;24.23;14.75;;;;;;;-1.27;92.24;96143.05;1769999;80;21092;-88
2021/01/06 06:34:05;;;;;;;29.32;15.43;;;;;;;-1.16;92.22;96164.45;1770112;81;21491;-88
2021/01/06 06:36:36;;;;;;;23.70;14.20;;;;;;;-1.14;92.26;96165.02;1769735;80;21163;-88
2021/01/06 06:39:25;;;;;;;21.17;13.88;;;;;;;-1.12;92.16;96159.63;1769913;80;21108;-88
2021/01/06 06:41:56;;;;;;;22.82;12.73;;;;;;;-1.20;91.97;96160.69;1769941;81;21147;-87
2021/01/06 06:44:31;;;;;;;23.90;13.98;;;;;;;-1.32;91.90;96160.59;1754841;81;21514;-87
2021/01/06 06:47:09;;;;;;;29.20;15.50;;;;;;;-1.48;91.83;96169.45;1769869;80;21150;-87
2021/01/06 06:50:06;;;;;;;23.18;13.78;;;;;;;-1.65;91.90;96154.89;1770545;79;21153;-88
2021/01/06 06:52:54;;;;;;;26.15;15.30;;;;;;;-1.78;91.74;96148.50;1769965;81;21142;-88
2021/01/06 06:56:04;;;;;;;26.85;15.35;;;;;;;-1.78;91.74;96148.50;1770076;80;21131;-88
2021/01/06 06:58:58;;;;;;;29.77;14.78;;;;;;;-1.65;92.06;96157.49;1770081;80;21139;-88
2021/01/06 07:01:30;;;;;;;23.95;13.60;;;;;;;-1.55;92.15;96156.02;1769884;81;21175;-87
2021/01/06 07:04:27;;;;;;;25.50;15.88;;;;;;;-1.52;91.97;96163.89;1878022;76;23039;-87
2021/01/06 07:07:01;;;;;;;23.80;13.22;;;;;;;-1.59;91.96;96172.23;1733394;82;21174;-87
2021/01/06 07:09:35;;;;;;;24.85;14.65;;;;;;;-1.53;92.11;96176.09;1782261;80;21168;-87
2021/01/06 07:12:11;;;;;;;24.92;14.53;;;;;;;-1.46;92.17;96177.32;1793182;79;21088;-88
2021/01/06 07:14:46;;;;;;;28.12;15.55;;;;;;;-1.47;91.99;96176.23;1793143;80;21503;-87
2021/01/06 07:17:22;;;;;;;28.62;15.50;;;;;;;-1.51;91.96;96170.67;1793220;79;21162;-87
2021/01/06 07:19:54;;;;;;;26.70;14.50;;;;;;;-1.51;91.90;96171.97;1766217;80;21140;-87
2021/01/06 07:22:44;;;;;;;27.27;14.58;;;;;;;-1.43;92.02;96169.59;1793242;80;21115;-87
2021/01/06 07:25:22;;;;;;;26.12;15.25;;;;;;;-1.36;92.00;96171.65;1793263;79;21467;-87
2021/01/06 07:27:57;;;;;;;24.45;15.32;;;;;;;-1.26;92.02;96167.56;1764292;80;21131;-88
2021/01/06 07:30:38;;;;;;;22.98;14.00;;;;;;;-1.30;91.93;96146.88;1793038;80;21115;-87
2021/01/06 07:33:34;;;;;;;25.43;15.35;;;;;;;-1.15;91.84;96167.84;1793141;80;21120;-88
2021/01/06 07:36:13;;;;;;;27.20;15.72;;;;;;;-1.28;91.52;96171.36;1793111;80;21459;-88
2021/01/06 07:38:43;;;;;;;24.52;14.20;;;;;;;-1.41;91.45;96178.77;1793033;80;21140;-88
2021/01/06 07:41:11;;;;;;;30.37;15.63;;;;;;;-1.44;91.45;96173.20;1793335;79;21131;-88
2021/01/06 07:43:44;;;;;;;26.05;15.80;;;;;;;-1.47;91.51;96163.23;1793141;80;21162;-88
2021/01/06 07:46:20;;;;;;;26.05;13.58;;;;;;;-1.44;91.65;96157.10;1793058;80;21506;-88
2021/01/06 07:49:13;;;;;;;31.62;17.20;;;;;;;-1.34;91.77;96159.23;1792857;80;21116;-88
2021/01/06 07:52:00;;;;;;;35.17;19.70;;;;;;;-1.30;91.75;96153.88;1775827;80;21143;-88
2021/01/06 07:54:39;;;;;;;44.50;25.40;;;;;;;-1.33;91.60;96149.11;1793086;80;21511;-88
2021/01/06 07:57:36;;;;;;;34.75;20.48;;;;;;;-1.34;91.56;96147.52;1793091;80;21096;-87
2021/01/06 08:00:10;;;;;;;32.38;20.77;;;;;;;-1.35;91.60;96162.33;1789733;80;21138;-88
2021/01/06 08:02:46;;;;;;;35.03;19.95;;;;;;;-1.30;91.86;96155.97;1795375;79;21169;-88
2021/01/06 08:05:34;;;;;;;31.23;19.90;;;;;;;-1.30;91.86;96155.97;1803950;79;21128;-88
2021/01/06 08:08:12;;;;;;;36.65;21.60;;;;;;;-1.20;92.00;96154.19;1805071;79;21147;-87
2021/01/06 08:10:43;;;;;;;41.45;23.75;;;;;;;-1.01;92.21;96158.89;1804852;79;21127;-88
2021/01/06 08:13:21;;;;;;;36.40;22.52;;;;;;;-0.85;92.26;96157.52;1805019;79;21478;-87
2021/01/06 08:16:18;;;;;;;37.63;20.50;;;;;;;-0.64;92.11;96157.09;1804184;79;21084;-87
2021/01/06 08:19:17;;;;;;;32.15;16.67;;;;;;;-0.64;92.11;96157.09;1799257;79;21551;-88
2021/01/06 08:21:55;;;;;;;24.90;16.02;;;;;;;-0.62;92.06;96164.17;1769378;80;21135;-88
2021/01/06 08:24:33;;;;;;;37.30;20.55;;;;;;;-0.60;92.18;96149.92;1772613;81;21500;-87
2021/01/06 08:27:03;;;;;;;31.35;19.37;;;;;;;-0.60;92.18;96149.92;1751072;81;21264;-87
2021/01/06 08:29:36;;;;;;;27.05;15.80;;;;;;;-0.47;91.98;96165.09;1756294;81;21637;-87
2021/01/06 08:32:18;;;;;;;30.27;18.42;;;;;;;-0.46;91.86;96164.08;1772292;81;21263;-87
2021/01/06 08:35:07;;;;;;;33.67;20.40;;;;;;;-0.55;91.64;96153.70;1741136;82;21126;-87
2021/01/06 08:37:39;;;;;;;36.10;19.87;;;;;;;-0.65;91.82;96138.08;1772291;81;21543;-87
2021/01/06 08:40:28;;;;;;;35.52;20.60;;;;;;;-0.60;92.22;96140.81;1756862;81;21154;-87
2021/01/06 08:42:57;;;;;;;30.63;17.00;;;;;;;-0.50;92.49;96131.19;1756996;82;21155;-87
2021/01/06 08:45:37;;;;;;;42.00;24.98;;;;;;;-0.41;92.57;96132.48;1756966;82;21147;-87
2021/01/06 08:48:24;;;;;;;37.30;19.87;;;;;;;-0.27;92.73;96129.70;1756610;81;21135;-87
2021/01/06 08:50:54;;;;;;;27.75;17.70;;;;;;;-0.19;92.60;96132.77;1781794;80;21254;-87
2021/01/06 08:53:34;;;;;;;;;;;;;;;-0.26;92.66;96141.70;1790483;80;21265;-87
2021/01/06 08:56:12;;;;;;;55.23;26.02;;;;;;;-0.28;92.66;96151.05;1787702;80;20234;-88
2021/01/06 08:58:47;;;;;;;47.60;26.37;;;;;;;-0.30;92.61;96153.05;1787670;80;21140;-88
2021/01/06 09:01:43;;;;;;;51.70;28.92;;;;;;;-0.25;92.73;96153.20;1787611;80;21131;-88
2021/01/06 09:04:41;;;;;;;40.05;24.32;;;;;;;-0.09;92.83;96135.64;1786741;80;21155;-88
2021/01/06 09:07:26;;;;;;;38.00;24.70;;;;;;;0.03;92.86;96134.88;1787142;80;21124;-87
2021/01/06 09:10:17;;;;;;;38.45;22.55;;;;;;;0.16;92.65;96138.09;1786866;80;21161;-88
2021/01/06 09:12:59;;;;;;;39.33;22.82;;;;;;;0.22;92.46;96135.88;1784317;80;21085;-87
2021/01/06 09:15:38;;;;;;;35.80;21.55;;;;;;;0.29;92.43;96129.27;1787403;80;21147;-88
2021/01/06 09:18:16;;;;;;;29.02;19.37;;;;;;;0.42;92.53;96119.91;1786462;80;21488;-87
2021/01/06 09:21:20;;;;;;;31.45;19.67;;;;;;;0.58;92.55;96115.86;1786625;80;21511;-88
2021/01/06 09:23:52;;;;;;;34.00;19.80;;;;;;;0.73;92.57;96129.23;1787196;80;21168;-88
2021/01/06 09:26:23;;;;;;;31.40;20.10;;;;;;;0.76;92.24;96137.91;1787293;80;21119;-88
2021/01/06 09:29:07;;;;;;;31.20;20.25;;;;;;;0.85;92.43;96122.20;1787236;80;21185;-89
2021/01/06 09:31:45;;;;;;;32.65;20.48;;;;;;;1.05;92.46;96120.52;1787309;80;21125;-88
2021/01/06 09:34:18;;;;;;;34.18;20.72;;;;;;;1.17;92.37;96097.79;1761102;80;21460;-88
2021/01/06 09:36:47;;;;;;;34.43;21.82;;;;;;;1.29;92.36;96088.63;1787151;80;21093;-88
2021/01/06 09:39:22;;;;;;;31.93;19.73;;;;;;;1.39;92.19;96099.24;1787443;80;21160;-89
2021/01/06 09:41:55;;;;;;;31.48;19.95;;;;;;;1.35;91.78;96092.91;1787071;80;21122;-89
2021/01/06 09:44:22;;;;;;;31.62;19.40;;;;;;;1.52;91.71;96107.83;1787137;80;21123;-88
2021/01/06 09:46:57;;;;;;;37.35;21.77;;;;;;;1.58;91.61;96109.02;1787090;80;21519;-88
2021/01/06 09:49:36;;;;;;;33.35;20.05;;;;;;;1.74;91.70;96100.94;1786673;80;21108;-89
2021/01/06 09:52:08;;;;;;;36.03;22.02;;;;;;;1.90;91.56;96085.80;1786755;80;21487;-88
2021/01/06 09:54:36;;;;;;;44.27;27.07;;;;;;;2.07;91.67;96076.14;1761459;80;21155;-88
2021/01/06 09:57:03;;;;;;;41.50;24.47;;;;;;;2.35;91.72;96090.17;1787108;80;21131;-88
2021/01/06 09:59:36;;;;;;;37.10;22.87;;;;;;;2.46;91.42;96092.43;1787122;80;21464;-88
2021/01/06 10:02:26;;;;;;;42.20;25.32;;;;;;;2.59;91.30;96083.73;1760787;80;21139;-88
2021/01/06 10:04:59;;;;;;;44.48;27.00;;;;;;;2.83;91.33;96073.08;1785116;80;21273;-89
2021/01/06 10:08:05;;;;;;;39.63;25.30;;;;;;;3.10;91.25;96060.06;1767707;80;21507;-89
2021/01/06 10:10:37;;;;;;;27.07;18.00;;;;;;;3.48;91.50;96051.30;1785068;80;21626;-88
2021/01/06 10:13:32;;;;;;;27.82;17.95;;;;;;;3.67;90.43;96045.21;1784924;80;21309;-88
2021/01/06 10:16:20;;;;;;;23.57;17.48;;;;;;;3.69;88.88;96043.13;1784953;80;21294;-89
2021/01/06 10:19:13;;;;;;;30.95;20.60;;;;;;;3.56;87.78;96047.72;1784795;80;21312;-89
2021/01/06 10:22:05;;;;;;;29.67;17.98;;;;;;;3.62;88.05;96038.06;1784889;80;21116;-89
2021/01/06 10:25:11;;;;;;;28.73;18.42;;;;;;;3.82;88.60;96023.06;1784530;80;21097;-89
2021/01/06 10:28:02;;;;;;;35.58;19.48;;;;;;;3.72;87.46;96005.92;1784986;80;21270;-89
2021/01/06 10:30:31;;;;;;;;;;;;;;;3.42;86.27;96006.44;1787477;80;21144;-89
2021/01/06 10:33:16;;;;;;;34.05;20.70;;;;;;;3.11;85.51;96009.27;1784948;80;20140;-89
2021/01/06 10:36:07;;;;;;;33.20;20.95;;;;;;;2.98;85.97;96005.98;1784212;80;21139;-89
2021/01/06 10:38:49;;;;;;;37.80;23.95;;;;;;;3.22;86.81;96003.08;1784897;80;21161;-89
2021/01/06 10:41:29;;;;;;;35.52;21.70;;;;;;;3.52;87.71;96002.61;1784748;80;21116;-90
2021/01/06 10:44:24;;;;;;;37.05;21.85;;;;;;;3.55;86.79;96006.05;1784304;80;21167;-90
2021/01/06 10:46:53;;;;;;;33.30;23.30;;;;;;;3.55;86.76;96008.66;1785105;80;21155;-89
2021/01/06 10:49:26;;;;;;;37.50;22.17;;;;;;;3.48;86.60;96005.44;1784143;80;21178;-89
2021/01/06 10:52:05;;;;;;;33.45;21.25;;;;;;;3.51;86.83;95992.63;1785312;80;21120;-89
2021/01/06 10:55:01;;;;;;;33.55;21.68;;;;;;;3.55;86.81;95981.14;1767713;80;21278;-90
2021/01/06 10:57:49;;;;;;;32.80;21.25;;;;;;;3.52;86.57;95974.58;1784850;80;21649;-90
2021/01/06 11:00:26;;;;;;;33.45;21.00;;;;;;;3.68;86.82;95979.95;1759127;80;21155;-89
2021/01/06 11:03:35;;;;;;;36.28;22.50;;;;;;;3.88;87.01;95965.16;1784825;80;21251;-88
2021/01/06 11:06:29;;;;;;;37.13;22.20;;;;;;;4.05;86.98;95961.07;1770960;80;21646;-89
2021/01/06 11:09:35;;;;;;;33.40;20.97;;;;;;;4.12;86.57;95966.91;1784788;80;21278;-89
2021/01/06 11:12:32;;;;;;;32.25;20.60;;;;;;;4.11;86.34;95960.60;1784837;80;21140;-90
2021/01/06 11:15:26;;;;;;;33.63;20.97;;;;;;;4.10;85.91;95980.00;1785153;80;21259;-90
2021/01/06 11:18:23;;;;;;;36.38;22.65;;;;;;;3.93;85.56;95978.81;1784041;80;21101;-90
2021/01/06 11:21:21;;;;;;;35.30;22.55;;;;;;;3.71;85.31;95966.34;1784236;80;21120;-90
2021/01/06 11:24:00;;;;;;;37.08;22.95;;;;;;;3.72;85.77;95952.19;1784810;80;21167;-89
2021/01/06 11:26:33;;;;;;;37.58;23.83;;;;;;;3.56;85.17;95951.28;1784826;80;21144;-90
2021/01/06 11:29:22;;;;;;;39.53;24.43;;;;;;;3.34;85.20;95942.69;1783964;80;21278;-90
2021/01/06 11:32:04;;;;;;;37.48;24.47;;;;;;;3.21;85.42;95936.02;1785325;80;21124;-90
2021/01/06 11:34:41;;;;;;;46.10;26.35;;;;;;;3.04;85.62;95933.50;1784899;80;21250;-90
2021/01/06 11:37:33;;;;;;;43.08;25.20;;;;;;;2.93;85.72;95939.14;1784825;80;21128;-90
2021/01/06 11:40:01;;;;;;;39.13;25.68;;;;;;;2.86;85.99;95930.70;1784761;80;21266;-90
2021/01/06 11:42:53;;;;;;;39.45;24.40;;;;;;;2.82;86.21;95938.00;1784757;80;21151;-90
2021/01/06 11:45:26;;;;;;;40.58;24.02;;;;;;;2.83;86.49;95920.73;1784880;80;21507;-89
2021/01/06 11:48:05;;;;;;;38.70;24.12;;;;;;;2.84;86.38;95915.77;1778859;80;21582;-89
2021/01/06 11:50:41;;;;;;;39.83;23.87;;;;;;;2.80;86.38;95920.41;1784074;80;21259;-89
2021/01/06 11:53:26;;;;;;;41.83;24.05;;;;;;;2.84;86.60;95909.23;1784594;80;21653;-89
2021/01/06 11:56:20;;;;;;;42.08;24.18;;;;;;;2.96;86.80;95912.50;1784970;80;21148;-89
2021/01/06 11:59:16;;;;;;;38.55;23.38;;;;;;;3.06;86.84;95916.23;1784907;80;21434;-90
2021/01/06 12:02:19;;;;;;;43.08;24.75;;;;;;;3.11;86.83;95905.83;1785153;80;21105;-88
2021/01/06 12:05:13;;;;;;;39.40;23.15;;;;;;;3.08;86.59;95891.89;1786512;80;21199;-90
2021/01/06 12:08:13;;;;;;;40.88;24.63;;;;;;;3.01;86.42;95883.46;1787338;80;21128;-90
2021/01/06 12:11:07;;;;;;;41.53;24.52;;;;;;;2.89;86.35;95890.16;1787188;80;21124;-89
2021/01/06 12:13:58;;;;;;;40.92;24.52;;;;;;;2.84;86.54;95880.43;1787207;80;21092;-90
2021/01/06 12:16:39;;;;;;;40.98;25.77;;;;;;;2.88;86.72;95877.59;1787207;80;21111;-90
2021/01/06 12:19:24;;;;;;;61.45;36.00;;;;;;;2.84;86.72;95873.09;1786543;80;21152;-90
2021/01/06 12:21:57;;;;;;;101.60;55.15;;;;;;;2.80;86.72;95866.75;1787288;80;21477;-90
2021/01/06 12:24:38;;;;;;;65.67;37.25;;;;;;;2.81;86.88;95862.58;1787116;80;21093;-90
2021/01/06 12:27:35;;;;;;;55.52;32.13;;;;;;;2.79;86.90;95857.33;1787348;80;21486;-90